Decoded Metar for UGTB (TBILISI/NOVO-AL in GEORGIA) (IATA:N/A) | Meteo·Mobile Aviation Weather
aviador You're here:

UGTB Decoded Metar

TBILISI/NOVO-AL in GEORGIA
Report Time2019-07-15 23:30:00
UTC Time2019-07-15 23:56:24
Flight Rules vfr VFR
Wind330° at 16 kt
W.Decomp.*RWY 31: 15.4 kt HW 4.4 kt RCW
Visibility9999 m
Phenomena:N/A
Clouds:N/A
Expected CloudBase > 2,800 ft AGL from Temp-Dew spread
CeilingNone
Temp21°C (ISA +9)
Dew Point14°C (64% RH)
AAT16.5°C
QNH1009 hPa
Density Alt3,051 ft
Elevation1,624 ft
Report Wrong Elevation
Raw Report
METAR UGTB 152330Z 33016KT CAVOK 21/14 Q1009 NOSIG=

Extra information for UGTB:More info

Metar Taf Metar & Taf Last 4 Metars F.Rules Stats Wind Profile Meteogram Temp Stats Airport Information Weather charts Add Link Nearby VenuesMetar ALERT Operation Metar Decoded Social comments